sensor_id;sensor_type;location;lat;lon;timestamp;P1;durP1;ratioP1;P2;durP2;ratioP2
16284;SDS011;8250;52.426;9.450;2022-08-03T00:02:18;4.93;;;4.30;;
16284;SDS011;8250;52.426;9.450;2022-08-03T00:04:45;4.38;;;3.97;;
16284;SDS011;8250;52.426;9.450;2022-08-03T00:07:12;4.97;;;4.47;;
16284;SDS011;8250;52.426;9.450;2022-08-03T00:09:39;5.32;;;4.80;;
16284;SDS011;8250;52.426;9.450;2022-08-03T00:12:06;4.95;;;4.45;;
16284;SDS011;8250;52.426;9.450;2022-08-03T00:14:33;5.82;;;4.40;;
16284;SDS011;8250;52.426;9.450;2022-08-03T00:17:00;4.88;;;4.47;;
16284;SDS011;8250;52.426;9.450;2022-08-03T00:19:28;4.50;;;4.10;;
16284;SDS011;8250;52.426;9.450;2022-08-03T00:21:55;5.82;;;4.60;;
16284;SDS011;8250;52.426;9.450;2022-08-03T00:24:22;4.60;;;4.20;;
16284;SDS011;8250;52.426;9.450;2022-08-03T00:26:49;4.68;;;4.28;;
16284;SDS011;8250;52.426;9.450;2022-08-03T00:29:17;4.90;;;4.40;;
16284;SDS011;8250;52.426;9.450;2022-08-03T00:31:44;4.97;;;4.55;;
16284;SDS011;8250;52.426;9.450;2022-08-03T00:34:11;5.57;;;4.60;;
16284;SDS011;8250;52.426;9.450;2022-08-03T00:36:39;5.28;;;4.65;;
16284;SDS011;8250;52.426;9.450;2022-08-03T00:39:06;5.05;;;4.65;;
16284;SDS011;8250;52.426;9.450;2022-08-03T00:41:33;5.78;;;4.38;;
16284;SDS011;8250;52.426;9.450;2022-08-03T00:44:00;5.30;;;4.80;;
16284;SDS011;8250;52.426;9.450;2022-08-03T00:46:27;5.30;;;4.80;;
16284;SDS011;8250;52.426;9.450;2022-08-03T00:48:54;4.60;;;4.20;;
16284;SDS011;8250;52.426;9.450;2022-08-03T00:51:21;4.60;;;4.13;;
16284;SDS011;8250;52.426;9.450;2022-08-03T00:53:49;4.70;;;4.30;;
16284;SDS011;8250;52.426;9.450;2022-08-03T00:56:17;5.15;;;4.70;;
16284;SDS011;8250;52.426;9.450;2022-08-03T00:58:44;4.95;;;4.45;;
16284;SDS011;8250;52.426;9.450;2022-08-03T01:01:12;4.70;;;4.30;;
16284;SDS011;8250;52.426;9.450;2022-08-03T01:03:40;5.45;;;4.55;;
16284;SDS011;8250;52.426;9.450;2022-08-03T01:06:09;4.68;;;4.28;;
16284;SDS011;8250;52.426;9.450;2022-08-03T01:08:43;4.53;;;4.10;;
16284;SDS011;8250;52.426;9.450;2022-08-03T01:11:16;4.97;;;4.28;;
16284;SDS011;8250;52.426;9.450;2022-08-03T01:13:50;5.65;;;4.63;;
16284;SDS011;8250;52.426;9.450;2022-08-03T01:16:25;5.55;;;5.00;;
16284;SDS011;8250;52.426;9.450;2022-08-03T01:18:57;4.70;;;4.30;;
16284;SDS011;8250;52.426;9.450;2022-08-03T01:21:33;4.80;;;4.40;;
16284;SDS011;8250;52.426;9.450;2022-08-03T01:24:09;4.70;;;4.20;;
16284;SDS011;8250;52.426;9.450;2022-08-03T01:26:54;4.55;;;4.15;;
16284;SDS011;8250;52.426;9.450;2022-08-03T01:32:27;4.70;;;4.30;;
16284;SDS011;8250;52.426;9.450;2022-08-03T01:35:03;4.72;;;4.32;;
16284;SDS011;8250;52.426;9.450;2022-08-03T01:37:35;4.28;;;3.88;;
16284;SDS011;8250;52.426;9.450;2022-08-03T01:40:06;4.40;;;4.00;;
16284;SDS011;8250;52.426;9.450;2022-08-03T01:42:35;4.75;;;4.32;;
16284;SDS011;8250;52.426;9.450;2022-08-03T01:45:04;5.00;;;4.60;;
16284;SDS011;8250;52.426;9.450;2022-08-03T01:47:35;4.60;;;4.20;;
16284;SDS011;8250;52.426;9.450;2022-08-03T01:50:03;4.20;;;3.83;;
16284;SDS011;8250;52.426;9.450;2022-08-03T01:52:32;4.75;;;4.22;;
16284;SDS011;8250;52.426;9.450;2022-08-03T01:55:00;4.70;;;4.20;;
16284;SDS011;8250;52.426;9.450;2022-08-03T01:57:30;4.70;;;4.30;;
16284;SDS011;8250;52.426;9.450;2022-08-03T01:59:58;4.35;;;3.95;;
16284;SDS011;8250;52.426;9.450;2022-08-03T02:02:28;5.10;;;4.70;;
16284;SDS011;8250;52.426;9.450;2022-08-03T02:04:57;4.53;;;4.13;;
16284;SDS011;8250;52.426;9.450;2022-08-03T02:07:25;5.50;;;4.22;;
16284;SDS011;8250;52.426;9.450;2022-08-03T02:09:54;4.75;;;4.30;;
16284;SDS011;8250;52.426;9.450;2022-08-03T02:12:23;6.30;;;5.65;;
16284;SDS011;8250;52.426;9.450;2022-08-03T02:14:51;4.75;;;4.35;;
16284;SDS011;8250;52.426;9.450;2022-08-03T02:17:21;5.40;;;4.90;;
16284;SDS011;8250;52.426;9.450;2022-08-03T02:19:52;5.18;;;4.68;;
16284;SDS011;8250;52.426;9.450;2022-08-03T02:22:21;5.00;;;4.50;;
16284;SDS011;8250;52.426;9.450;2022-08-03T02:24:50;4.97;;;4.57;;
16284;SDS011;8250;52.426;9.450;2022-08-03T02:27:19;5.43;;;4.93;;
16284;SDS011;8250;52.426;9.450;2022-08-03T02:29:50;4.47;;;4.13;;
16284;SDS011;8250;52.426;9.450;2022-08-03T02:32:21;5.50;;;4.93;;
16284;SDS011;8250;52.426;9.450;2022-08-03T02:34:55;5.40;;;4.93;;
16284;SDS011;8250;52.426;9.450;2022-08-03T02:37:24;4.78;;;4.28;;
16284;SDS011;8250;52.426;9.450;2022-08-03T02:40:01;4.68;;;4.22;;
16284;SDS011;8250;52.426;9.450;2022-08-03T02:42:31;4.72;;;4.32;;
16284;SDS011;8250;52.426;9.450;2022-08-03T02:45:01;5.22;;;4.72;;
16284;SDS011;8250;52.426;9.450;2022-08-03T02:47:30;5.88;;;5.28;;
16284;SDS011;8250;52.426;9.450;2022-08-03T02:50:02;4.70;;;4.30;;
16284;SDS011;8250;52.426;9.450;2022-08-03T02:52:30;5.35;;;4.85;;
16284;SDS011;8250;52.426;9.450;2022-08-03T02:55:01;4.85;;;4.35;;
16284;SDS011;8250;52.426;9.450;2022-08-03T02:57:30;5.70;;;5.20;;
16284;SDS011;8250;52.426;9.450;2022-08-03T02:59:58;5.65;;;4.90;;
16284;SDS011;8250;52.426;9.450;2022-08-03T03:02:26;5.30;;;4.78;;
16284;SDS011;8250;52.426;9.450;2022-08-03T03:04:54;5.00;;;4.53;;
16284;SDS011;8250;52.426;9.450;2022-08-03T03:07:22;5.20;;;4.68;;
16284;SDS011;8250;52.426;9.450;2022-08-03T03:09:51;5.32;;;4.82;;
16284;SDS011;8250;52.426;9.450;2022-08-03T03:12:18;5.35;;;4.85;;
16284;SDS011;8250;52.426;9.450;2022-08-03T03:14:47;5.28;;;4.78;;
16284;SDS011;8250;52.426;9.450;2022-08-03T03:17:14;5.20;;;4.35;;
16284;SDS011;8250;52.426;9.450;2022-08-03T03:19:43;4.60;;;4.18;;
16284;SDS011;8250;52.426;9.450;2022-08-03T03:22:11;5.25;;;4.80;;
16284;SDS011;8250;52.426;9.450;2022-08-03T03:24:41;5.03;;;4.53;;
16284;SDS011;8250;52.426;9.450;2022-08-03T03:27:09;6.10;;;5.50;;
16284;SDS011;8250;52.426;9.450;2022-08-03T03:29:39;5.53;;;4.85;;
16284;SDS011;8250;52.426;9.450;2022-08-03T03:32:06;5.57;;;4.85;;
16284;SDS011;8250;52.426;9.450;2022-08-03T03:34:33;5.22;;;4.72;;
16284;SDS011;8250;52.426;9.450;2022-08-03T03:37:00;5.10;;;4.60;;
16284;SDS011;8250;52.426;9.450;2022-08-03T03:39:28;5.15;;;4.65;;
16284;SDS011;8250;52.426;9.450;2022-08-03T03:41:56;5.15;;;4.65;;
16284;SDS011;8250;52.426;9.450;2022-08-03T03:44:25;5.10;;;4.65;;
16284;SDS011;8250;52.426;9.450;2022-08-03T03:46:52;5.55;;;5.05;;
16284;SDS011;8250;52.426;9.450;2022-08-03T03:49:20;5.10;;;4.60;;
16284;SDS011;8250;52.426;9.450;2022-08-03T03:51:47;5.78;;;4.60;;
16284;SDS011;8250;52.426;9.450;2022-08-03T03:54:14;5.30;;;4.80;;
16284;SDS011;8250;52.426;9.450;2022-08-03T03:56:41;5.28;;;4.78;;
16284;SDS011;8250;52.426;9.450;2022-08-03T03:59:09;4.97;;;4.47;;
16284;SDS011;8250;52.426;9.450;2022-08-03T04:01:36;4.72;;;4.30;;
16284;SDS011;8250;52.426;9.450;2022-08-03T04:04:04;4.22;;;3.80;;
16284;SDS011;8250;52.426;9.450;2022-08-03T04:06:45;4.80;;;4.30;;
16284;SDS011;8250;52.426;9.450;2022-08-03T04:09:33;5.30;;;4.40;;
16284;SDS011;8250;52.426;9.450;2022-08-03T04:12:19;4.53;;;4.13;;
16284;SDS011;8250;52.426;9.450;2022-08-03T04:14:49;4.50;;;4.10;;
16284;SDS011;8250;52.426;9.450;2022-08-03T04:17:21;4.50;;;3.95;;
16284;SDS011;8250;52.426;9.450;2022-08-03T04:19:52;4.25;;;3.85;;
16284;SDS011;8250;52.426;9.450;2022-08-03T04:22:20;4.93;;;4.43;;
16284;SDS011;8250;52.426;9.450;2022-08-03T04:24:50;4.47;;;4.07;;
16284;SDS011;8250;52.426;9.450;2022-08-03T04:27:23;4.68;;;4.13;;
16284;SDS011;8250;52.426;9.450;2022-08-03T04:29:54;4.70;;;4.30;;
16284;SDS011;8250;52.426;9.450;2022-08-03T04:32:22;5.00;;;4.50;;
16284;SDS011;8250;52.426;9.450;2022-08-03T04:34:52;4.72;;;4.32;;
16284;SDS011;8250;52.426;9.450;2022-08-03T04:37:22;4.80;;;4.40;;
16284;SDS011;8250;52.426;9.450;2022-08-03T04:39:55;5.20;;;4.55;;
16284;SDS011;8250;52.426;9.450;2022-08-03T04:42:26;4.90;;;4.50;;
16284;SDS011;8250;52.426;9.450;2022-08-03T04:44:56;4.20;;;3.80;;
16284;SDS011;8250;52.426;9.450;2022-08-03T04:47:23;4.25;;;3.90;;
16284;SDS011;8250;52.426;9.450;2022-08-03T04:49:50;3.97;;;3.55;;
16284;SDS011;8250;52.426;9.450;2022-08-03T04:52:18;4.35;;;3.95;;
16284;SDS011;8250;52.426;9.450;2022-08-03T04:54:45;5.28;;;4.78;;
16284;SDS011;8250;52.426;9.450;2022-08-03T04:57:13;4.50;;;3.90;;
16284;SDS011;8250;52.426;9.450;2022-08-03T04:59:40;4.70;;;3.90;;
16284;SDS011;8250;52.426;9.450;2022-08-03T05:02:08;4.40;;;4.00;;
16284;SDS011;8250;52.426;9.450;2022-08-03T05:04:35;4.95;;;4.18;;
16284;SDS011;8250;52.426;9.450;2022-08-03T05:07:05;5.38;;;4.28;;
16284;SDS011;8250;52.426;9.450;2022-08-03T05:09:31;4.53;;;3.90;;
16284;SDS011;8250;52.426;9.450;2022-08-03T05:12:00;4.55;;;4.15;;
16284;SDS011;8250;52.426;9.450;2022-08-03T05:14:27;4.43;;;4.03;;
16284;SDS011;8250;52.426;9.450;2022-08-03T05:16:54;4.55;;;4.15;;
16284;SDS011;8250;52.426;9.450;2022-08-03T05:19:22;4.40;;;4.00;;
16284;SDS011;8250;52.426;9.450;2022-08-03T05:21:49;5.85;;;4.50;;
16284;SDS011;8250;52.426;9.450;2022-08-03T05:24:16;4.45;;;4.05;;
16284;SDS011;8250;52.426;9.450;2022-08-03T05:26:43;4.30;;;3.90;;
16284;SDS011;8250;52.426;9.450;2022-08-03T05:29:10;4.80;;;4.30;;
16284;SDS011;8250;52.426;9.450;2022-08-03T05:31:37;4.05;;;3.70;;
16284;SDS011;8250;52.426;9.450;2022-08-03T05:34:04;4.28;;;3.95;;
16284;SDS011;8250;52.426;9.450;2022-08-03T05:36:32;4.30;;;3.90;;
16284;SDS011;8250;52.426;9.450;2022-08-03T05:38:59;3.85;;;3.55;;
16284;SDS011;8250;52.426;9.450;2022-08-03T05:41:26;3.88;;;3.58;;
16284;SDS011;8250;52.426;9.450;2022-08-03T05:43:53;4.07;;;3.67;;
16284;SDS011;8250;52.426;9.450;2022-08-03T05:46:21;4.00;;;3.60;;
16284;SDS011;8250;52.426;9.450;2022-08-03T05:48:48;4.32;;;3.92;;
16284;SDS011;8250;52.426;9.450;2022-08-03T05:51:15;3.90;;;3.50;;
16284;SDS011;8250;52.426;9.450;2022-08-03T05:53:43;3.80;;;3.40;;
16284;SDS011;8250;52.426;9.450;2022-08-03T05:56:10;4.20;;;3.30;;
16284;SDS011;8250;52.426;9.450;2022-08-03T05:58:37;4.20;;;3.40;;
16284;SDS011;8250;52.426;9.450;2022-08-03T06:01:04;3.53;;;3.20;;
16284;SDS011;8250;52.426;9.450;2022-08-03T06:03:31;3.63;;;3.30;;
16284;SDS011;8250;52.426;9.450;2022-08-03T06:05:58;3.30;;;3.00;;
16284;SDS011;8250;52.426;9.450;2022-08-03T06:08:25;4.05;;;3.13;;
16284;SDS011;8250;52.426;9.450;2022-08-03T06:10:53;3.58;;;2.97;;
16284;SDS011;8250;52.426;9.450;2022-08-03T06:13:20;3.10;;;2.72;;
16284;SDS011;8250;52.426;9.450;2022-08-03T06:15:47;4.25;;;2.92;;
16284;SDS011;8250;52.426;9.450;2022-08-03T06:18:14;3.33;;;3.03;;
16284;SDS011;8250;52.426;9.450;2022-08-03T06:20:41;4.68;;;3.50;;
16284;SDS011;8250;52.426;9.450;2022-08-03T06:23:08;3.28;;;2.95;;
16284;SDS011;8250;52.426;9.450;2022-08-03T06:25:34;3.58;;;2.70;;
16284;SDS011;8250;52.426;9.450;2022-08-03T06:28:03;2.92;;;2.63;;
16284;SDS011;8250;52.426;9.450;2022-08-03T06:30:30;2.80;;;2.60;;
16284;SDS011;8250;52.426;9.450;2022-08-03T06:32:58;3.40;;;2.90;;
16284;SDS011;8250;52.426;9.450;2022-08-03T06:35:25;2.75;;;2.55;;
16284;SDS011;8250;52.426;9.450;2022-08-03T06:37:52;2.58;;;2.38;;
16284;SDS011;8250;52.426;9.450;2022-08-03T06:40:20;2.83;;;2.58;;
16284;SDS011;8250;52.426;9.450;2022-08-03T06:42:54;2.50;;;2.17;;
16284;SDS011;8250;52.426;9.450;2022-08-03T06:45:22;2.20;;;2.03;;
16284;SDS011;8250;52.426;9.450;2022-08-03T06:47:59;2.40;;;2.20;;
16284;SDS011;8250;52.426;9.450;2022-08-03T06:50:29;2.45;;;2.22;;
16284;SDS011;8250;52.426;9.450;2022-08-03T06:52:56;3.22;;;2.40;;
16284;SDS011;8250;52.426;9.450;2022-08-03T06:55:24;2.42;;;2.22;;
16284;SDS011;8250;52.426;9.450;2022-08-03T06:57:51;2.10;;;1.90;;
16284;SDS011;8250;52.426;9.450;2022-08-03T07:00:18;2.60;;;2.20;;
16284;SDS011;8250;52.426;9.450;2022-08-03T07:02:47;2.40;;;2.08;;
16284;SDS011;8250;52.426;9.450;2022-08-03T07:05:14;4.05;;;2.08;;
16284;SDS011;8250;52.426;9.450;2022-08-03T07:07:41;2.40;;;2.10;;
16284;SDS011;8250;52.426;9.450;2022-08-03T07:10:09;3.35;;;2.00;;
16284;SDS011;8250;52.426;9.450;2022-08-03T07:12:36;2.25;;;2.05;;
16284;SDS011;8250;52.426;9.450;2022-08-03T07:15:05;2.63;;;2.20;;
16284;SDS011;8250;52.426;9.450;2022-08-03T07:17:33;2.45;;;2.17;;
16284;SDS011;8250;52.426;9.450;2022-08-03T07:20:03;2.97;;;2.00;;
16284;SDS011;8250;52.426;9.450;2022-08-03T07:22:33;2.92;;;2.45;;
16284;SDS011;8250;52.426;9.450;2022-08-03T07:25:00;2.30;;;2.10;;
16284;SDS011;8250;52.426;9.450;2022-08-03T07:27:27;2.42;;;2.22;;
16284;SDS011;8250;52.426;9.450;2022-08-03T07:29:54;2.45;;;2.10;;
16284;SDS011;8250;52.426;9.450;2022-08-03T07:32:22;2.28;;;2.08;;
16284;SDS011;8250;52.426;9.450;2022-08-03T07:34:49;3.25;;;2.22;;
16284;SDS011;8250;52.426;9.450;2022-08-03T07:37:17;3.10;;;2.05;;
16284;SDS011;8250;52.426;9.450;2022-08-03T07:39:44;2.30;;;2.10;;
16284;SDS011;8250;52.426;9.450;2022-08-03T07:42:11;2.65;;;1.70;;
16284;SDS011;8250;52.426;9.450;2022-08-03T07:44:38;1.85;;;1.75;;
16284;SDS011;8250;52.426;9.450;2022-08-03T07:47:05;1.85;;;1.75;;
16284;SDS011;8250;52.426;9.450;2022-08-03T07:49:32;2.20;;;1.73;;
16284;SDS011;8250;52.426;9.450;2022-08-03T07:52:03;1.73;;;1.60;;
16284;SDS011;8250;52.426;9.450;2022-08-03T07:54:49;3.50;;;1.80;;
16284;SDS011;8250;52.426;9.450;2022-08-03T07:57:16;2.85;;;1.90;;
16284;SDS011;8250;52.426;9.450;2022-08-03T07:59:44;3.42;;;2.03;;
16284;SDS011;8250;52.426;9.450;2022-08-03T08:02:11;1.73;;;1.60;;
16284;SDS011;8250;52.426;9.450;2022-08-03T08:04:38;1.88;;;1.70;;
16284;SDS011;8250;52.426;9.450;2022-08-03T08:07:05;2.88;;;1.65;;
16284;SDS011;8250;52.426;9.450;2022-08-03T08:09:32;2.08;;;1.88;;
16284;SDS011;8250;52.426;9.450;2022-08-03T08:12:00;2.63;;;1.70;;
16284;SDS011;8250;52.426;9.450;2022-08-03T08:14:27;1.70;;;1.58;;
16284;SDS011;8250;52.426;9.450;2022-08-03T08:16:54;2.00;;;1.80;;
16284;SDS011;8250;52.426;9.450;2022-08-03T08:19:21;1.90;;;1.70;;
16284;SDS011;8250;52.426;9.450;2022-08-03T08:21:48;2.75;;;1.70;;
16284;SDS011;8250;52.426;9.450;2022-08-03T08:24:15;4.60;;;2.22;;
16284;SDS011;8250;52.426;9.450;2022-08-03T08:26:42;1.70;;;1.48;;
16284;SDS011;8250;52.426;9.450;2022-08-03T08:29:10;2.50;;;1.75;;
16284;SDS011;8250;52.426;9.450;2022-08-03T08:31:37;1.65;;;1.55;;
16284;SDS011;8250;52.426;9.450;2022-08-03T08:34:04;2.00;;;1.77;;
16284;SDS011;8250;52.426;9.450;2022-08-03T08:36:31;2.53;;;1.73;;
16284;SDS011;8250;52.426;9.450;2022-08-03T08:38:58;1.65;;;1.52;;
16284;SDS011;8250;52.426;9.450;2022-08-03T08:41:25;1.42;;;1.33;;
16284;SDS011;8250;52.426;9.450;2022-08-03T08:43:53;2.28;;;1.77;;
16284;SDS011;8250;52.426;9.450;2022-08-03T08:46:21;2.00;;;1.80;;
16284;SDS011;8250;52.426;9.450;2022-08-03T08:48:48;2.67;;;1.80;;
16284;SDS011;8250;52.426;9.450;2022-08-03T08:51:17;2.47;;;1.48;;
16284;SDS011;8250;52.426;9.450;2022-08-03T08:53:47;1.88;;;1.50;;
16284;SDS011;8250;52.426;9.450;2022-08-03T08:56:16;2.83;;;1.42;;
16284;SDS011;8250;52.426;9.450;2022-08-03T08:58:46;2.05;;;1.50;;
16284;SDS011;8250;52.426;9.450;2022-08-03T09:01:17;1.60;;;1.40;;
16284;SDS011;8250;52.426;9.450;2022-08-03T09:03:46;2.08;;;1.60;;
16284;SDS011;8250;52.426;9.450;2022-08-03T09:06:13;2.58;;;1.73;;
16284;SDS011;8250;52.426;9.450;2022-08-03T09:08:40;1.52;;;1.25;;
16284;SDS011;8250;52.426;9.450;2022-08-03T09:11:07;2.58;;;1.42;;
16284;SDS011;8250;52.426;9.450;2022-08-03T09:13:34;2.20;;;1.80;;
16284;SDS011;8250;52.426;9.450;2022-08-03T09:16:08;2.88;;;1.50;;
16284;SDS011;8250;52.426;9.450;2022-08-03T09:18:37;5.38;;;1.80;;
16284;SDS011;8250;52.426;9.450;2022-08-03T09:21:18;1.98;;;1.42;;
16284;SDS011;8250;52.426;9.450;2022-08-03T09:23:46;2.08;;;1.40;;
16284;SDS011;8250;52.426;9.450;2022-08-03T09:26:21;3.05;;;1.50;;
16284;SDS011;8250;52.426;9.450;2022-08-03T09:28:56;2.90;;;1.60;;
16284;SDS011;8250;52.426;9.450;2022-08-03T09:31:30;1.65;;;1.17;;
16284;SDS011;8250;52.426;9.450;2022-08-03T09:33:59;2.08;;;1.50;;
16284;SDS011;8250;52.426;9.450;2022-08-03T09:36:37;4.68;;;1.40;;
16284;SDS011;8250;52.426;9.450;2022-08-03T09:39:05;2.20;;;1.50;;
16284;SDS011;8250;52.426;9.450;2022-08-03T09:41:35;2.42;;;1.60;;
16284;SDS011;8250;52.426;9.450;2022-08-03T09:44:02;2.75;;;1.55;;
16284;SDS011;8250;52.426;9.450;2022-08-03T09:46:30;1.88;;;1.52;;
16284;SDS011;8250;52.426;9.450;2022-08-03T09:51:40;3.00;;;1.80;;
16284;SDS011;8250;52.426;9.450;2022-08-03T09:54:07;1.98;;;1.40;;
16284;SDS011;8250;52.426;9.450;2022-08-03T09:56:38;2.55;;;1.90;;
16284;SDS011;8250;52.426;9.450;2022-08-03T09:59:09;2.08;;;1.40;;
16284;SDS011;8250;52.426;9.450;2022-08-03T10:01:37;1.80;;;1.50;;
16284;SDS011;8250;52.426;9.450;2022-08-03T10:04:08;1.83;;;1.30;;
16284;SDS011;8250;52.426;9.450;2022-08-03T10:06:38;1.98;;;1.48;;
16284;SDS011;8250;52.426;9.450;2022-08-03T10:09:09;2.92;;;1.30;;
16284;SDS011;8250;52.426;9.450;2022-08-03T10:11:38;3.03;;;1.60;;
16284;SDS011;8250;52.426;9.450;2022-08-03T10:14:06;1.40;;;1.30;;
16284;SDS011;8250;52.426;9.450;2022-08-03T10:16:34;2.78;;;1.50;;
16284;SDS011;8250;52.426;9.450;2022-08-03T10:19:03;1.73;;;1.50;;
16284;SDS011;8250;52.426;9.450;2022-08-03T10:21:32;2.78;;;1.70;;
16284;SDS011;8250;52.426;9.450;2022-08-03T10:24:03;2.15;;;1.30;;
16284;SDS011;8250;52.426;9.450;2022-08-03T10:26:32;1.98;;;1.40;;
16284;SDS011;8250;52.426;9.450;2022-08-03T10:29:02;3.30;;;1.45;;
16284;SDS011;8250;52.426;9.450;2022-08-03T10:31:33;3.13;;;1.42;;
16284;SDS011;8250;52.426;9.450;2022-08-03T10:34:05;1.73;;;1.10;;
16284;SDS011;8250;52.426;9.450;2022-08-03T10:36:36;1.52;;;1.10;;
16284;SDS011;8250;52.426;9.450;2022-08-03T10:39:07;2.00;;;1.40;;
16284;SDS011;8250;52.426;9.450;2022-08-03T10:41:36;3.67;;;1.40;;
16284;SDS011;8250;52.426;9.450;2022-08-03T10:44:07;1.60;;;1.50;;
16284;SDS011;8250;52.426;9.450;2022-08-03T10:46:37;2.08;;;1.27;;
16284;SDS011;8250;52.426;9.450;2022-08-03T10:49:05;2.15;;;1.50;;
16284;SDS011;8250;52.426;9.450;2022-08-03T10:51:33;2.80;;;1.50;;
16284;SDS011;8250;52.426;9.450;2022-08-03T10:54:00;2.55;;;1.40;;
16284;SDS011;8250;52.426;9.450;2022-08-03T10:56:38;1.90;;;1.30;;
16284;SDS011;8250;52.426;9.450;2022-08-03T11:02:23;1.50;;;1.30;;
16284;SDS011;8250;52.426;9.450;2022-08-03T11:05:28;2.50;;;1.60;;
16284;SDS011;8250;52.426;9.450;2022-08-03T11:10:53;2.05;;;1.38;;
16284;SDS011;8250;52.426;9.450;2022-08-03T11:13:23;1.88;;;1.20;;
16284;SDS011;8250;52.426;9.450;2022-08-03T11:15:53;2.33;;;1.20;;
16284;SDS011;8250;52.426;9.450;2022-08-03T11:18:21;1.63;;;1.45;;
16284;SDS011;8250;52.426;9.450;2022-08-03T11:20:49;2.47;;;1.20;;
16284;SDS011;8250;52.426;9.450;2022-08-03T11:23:19;3.50;;;1.63;;
16284;SDS011;8250;52.426;9.450;2022-08-03T11:26:11;2.15;;;1.35;;
16284;SDS011;8250;52.426;9.450;2022-08-03T11:28:43;2.63;;;1.50;;
16284;SDS011;8250;52.426;9.450;2022-08-03T11:34:18;2.05;;;1.50;;
16284;SDS011;8250;52.426;9.450;2022-08-03T11:39:51;3.15;;;1.20;;
16284;SDS011;8250;52.426;9.450;2022-08-03T11:42:39;1.75;;;1.30;;
16284;SDS011;8250;52.426;9.450;2022-08-03T11:45:11;2.78;;;1.45;;
16284;SDS011;8250;52.426;9.450;2022-08-03T11:47:39;3.25;;;1.73;;
16284;SDS011;8250;52.426;9.450;2022-08-03T11:50:06;2.40;;;1.30;;
16284;SDS011;8250;52.426;9.450;2022-08-03T11:52:37;1.95;;;1.30;;
16284;SDS011;8250;52.426;9.450;2022-08-03T11:55:10;1.92;;;1.30;;
16284;SDS011;8250;52.426;9.450;2022-08-03T11:57:42;2.65;;;1.60;;
16284;SDS011;8250;52.426;9.450;2022-08-03T12:00:28;1.90;;;1.40;;
16284;SDS011;8250;52.426;9.450;2022-08-03T12:02:58;3.35;;;1.98;;
16284;SDS011;8250;52.426;9.450;2022-08-03T12:05:37;1.55;;;1.40;;
16284;SDS011;8250;52.426;9.450;2022-08-03T12:08:11;2.28;;;1.38;;
16284;SDS011;8250;52.426;9.450;2022-08-03T12:10:43;2.92;;;1.50;;
16284;SDS011;8250;52.426;9.450;2022-08-03T12:13:12;2.13;;;1.35;;
16284;SDS011;8250;52.426;9.450;2022-08-03T12:15:41;1.98;;;1.35;;
16284;SDS011;8250;52.426;9.450;2022-08-03T12:18:12;2.20;;;1.38;;
16284;SDS011;8250;52.426;9.450;2022-08-03T12:20:41;1.98;;;1.20;;
16284;SDS011;8250;52.426;9.450;2022-08-03T12:23:09;1.75;;;1.20;;
16284;SDS011;8250;52.426;9.450;2022-08-03T12:25:37;1.80;;;1.33;;
16284;SDS011;8250;52.426;9.450;2022-08-03T12:28:06;1.45;;;1.10;;
16284;SDS011;8250;52.426;9.450;2022-08-03T12:30:35;1.48;;;1.38;;
16284;SDS011;8250;52.426;9.450;2022-08-03T12:33:15;3.15;;;1.40;;
16284;SDS011;8250;52.426;9.450;2022-08-03T12:35:47;1.60;;;1.10;;
16284;SDS011;8250;52.426;9.450;2022-08-03T12:38:18;3.08;;;2.10;;
16284;SDS011;8250;52.426;9.450;2022-08-03T12:40:55;2.13;;;1.70;;
16284;SDS011;8250;52.426;9.450;2022-08-03T12:43:23;3.90;;;1.33;;
16284;SDS011;8250;52.426;9.450;2022-08-03T12:45:51;3.03;;;1.38;;
16284;SDS011;8250;52.426;9.450;2022-08-03T12:48:32;1.90;;;1.23;;
16284;SDS011;8250;52.426;9.450;2022-08-03T12:51:07;2.45;;;1.40;;
16284;SDS011;8250;52.426;9.450;2022-08-03T12:53:35;2.33;;;1.30;;
16284;SDS011;8250;52.426;9.450;2022-08-03T12:56:02;1.85;;;1.40;;
16284;SDS011;8250;52.426;9.450;2022-08-03T12:58:31;1.92;;;1.45;;
16284;SDS011;8250;52.426;9.450;2022-08-03T13:00:59;3.20;;;1.40;;
16284;SDS011;8250;52.426;9.450;2022-08-03T13:03:27;1.48;;;1.10;;
16284;SDS011;8250;52.426;9.450;2022-08-03T13:05:55;1.73;;;1.38;;
16284;SDS011;8250;52.426;9.450;2022-08-03T13:08:23;2.55;;;1.20;;
16284;SDS011;8250;52.426;9.450;2022-08-03T13:10:51;1.55;;;1.20;;
16284;SDS011;8250;52.426;9.450;2022-08-03T13:13:18;1.35;;;1.25;;
16284;SDS011;8250;52.426;9.450;2022-08-03T13:16:03;1.80;;;1.50;;
16284;SDS011;8250;52.426;9.450;2022-08-03T13:18:30;3.28;;;1.23;;
16284;SDS011;8250;52.426;9.450;2022-08-03T13:20:58;1.92;;;1.30;;
16284;SDS011;8250;52.426;9.450;2022-08-03T13:23:25;1.50;;;1.40;;
16284;SDS011;8250;52.426;9.450;2022-08-03T13:25:52;3.15;;;1.48;;
16284;SDS011;8250;52.426;9.450;2022-08-03T13:28:19;1.38;;;1.23;;
16284;SDS011;8250;52.426;9.450;2022-08-03T13:30:46;1.95;;;1.10;;
16284;SDS011;8250;52.426;9.450;2022-08-03T13:33:13;2.03;;;1.20;;
16284;SDS011;8250;52.426;9.450;2022-08-03T13:35:40;2.50;;;1.25;;
16284;SDS011;8250;52.426;9.450;2022-08-03T13:38:08;1.40;;;1.30;;
16284;SDS011;8250;52.426;9.450;2022-08-03T13:40:35;1.88;;;1.20;;
16284;SDS011;8250;52.426;9.450;2022-08-03T13:43:02;2.90;;;1.35;;
16284;SDS011;8250;52.426;9.450;2022-08-03T13:45:29;1.95;;;1.35;;
16284;SDS011;8250;52.426;9.450;2022-08-03T13:47:56;1.58;;;1.27;;
16284;SDS011;8250;52.426;9.450;2022-08-03T13:50:23;2.55;;;1.50;;
16284;SDS011;8250;52.426;9.450;2022-08-03T13:52:50;1.38;;;1.10;;
16284;SDS011;8250;52.426;9.450;2022-08-03T13:55:19;1.98;;;1.35;;
16284;SDS011;8250;52.426;9.450;2022-08-03T13:57:46;1.98;;;1.35;;
16284;SDS011;8250;52.426;9.450;2022-08-03T14:00:14;3.03;;;1.50;;
16284;SDS011;8250;52.426;9.450;2022-08-03T14:02:42;1.60;;;1.50;;
16284;SDS011;8250;52.426;9.450;2022-08-03T14:05:09;2.03;;;1.33;;
16284;SDS011;8250;52.426;9.450;2022-08-03T14:07:36;1.83;;;1.27;;
16284;SDS011;8250;52.426;9.450;2022-08-03T14:10:03;1.88;;;1.10;;
16284;SDS011;8250;52.426;9.450;2022-08-03T14:12:32;1.58;;;1.48;;
16284;SDS011;8250;52.426;9.450;2022-08-03T14:15:00;3.00;;;1.40;;
16284;SDS011;8250;52.426;9.450;2022-08-03T14:17:27;2.42;;;1.55;;
16284;SDS011;8250;52.426;9.450;2022-08-03T14:19:54;1.98;;;1.50;;
16284;SDS011;8250;52.426;9.450;2022-08-03T14:22:21;2.50;;;1.33;;
16284;SDS011;8250;52.426;9.450;2022-08-03T14:24:48;3.45;;;1.52;;
16284;SDS011;8250;52.426;9.450;2022-08-03T14:27:15;2.03;;;1.40;;
16284;SDS011;8250;52.426;9.450;2022-08-03T14:29:43;3.45;;;1.65;;
16284;SDS011;8250;52.426;9.450;2022-08-03T14:32:10;1.70;;;1.33;;
16284;SDS011;8250;52.426;9.450;2022-08-03T14:34:37;1.67;;;1.50;;
16284;SDS011;8250;52.426;9.450;2022-08-03T14:37:04;2.35;;;1.58;;
16284;SDS011;8250;52.426;9.450;2022-08-03T14:39:31;1.92;;;1.33;;
16284;SDS011;8250;52.426;9.450;2022-08-03T14:41:58;2.10;;;1.80;;
16284;SDS011;8250;52.426;9.450;2022-08-03T14:44:24;2.15;;;1.63;;
16284;SDS011;8250;52.426;9.450;2022-08-03T14:46:53;1.85;;;1.45;;
16284;SDS011;8250;52.426;9.450;2022-08-03T14:49:20;1.85;;;1.65;;
16284;SDS011;8250;52.426;9.450;2022-08-03T14:51:47;2.05;;;1.60;;
16284;SDS011;8250;52.426;9.450;2022-08-03T14:54:14;1.88;;;1.55;;
16284;SDS011;8250;52.426;9.450;2022-08-03T14:56:41;3.42;;;1.83;;
16284;SDS011;8250;52.426;9.450;2022-08-03T14:59:07;1.52;;;1.42;;
16284;SDS011;8250;52.426;9.450;2022-08-03T15:01:34;2.20;;;1.48;;
16284;SDS011;8250;52.426;9.450;2022-08-03T15:04:03;1.65;;;1.45;;
16284;SDS011;8250;52.426;9.450;2022-08-03T15:06:30;2.10;;;1.40;;
16284;SDS011;8250;52.426;9.450;2022-08-03T15:08:56;1.20;;;1.10;;
16284;SDS011;8250;52.426;9.450;2022-08-03T15:11:23;1.42;;;1.33;;
16284;SDS011;8250;52.426;9.450;2022-08-03T15:13:50;1.65;;;1.17;;
16284;SDS011;8250;52.426;9.450;2022-08-03T15:16:17;1.60;;;1.50;;
16284;SDS011;8250;52.426;9.450;2022-08-03T15:18:44;2.45;;;1.50;;
16284;SDS011;8250;52.426;9.450;2022-08-03T15:21:12;1.98;;;1.40;;
16284;SDS011;8250;52.426;9.450;2022-08-03T15:23:39;4.75;;;1.60;;
16284;SDS011;8250;52.426;9.450;2022-08-03T15:26:06;2.85;;;1.70;;
16284;SDS011;8250;52.426;9.450;2022-08-03T15:28:33;2.53;;;1.48;;
16284;SDS011;8250;52.426;9.450;2022-08-03T15:31:00;3.38;;;1.48;;